Time;durP1;ratioP1;P1;durP2;ratioP2;P2;SDS_P1;SDS_P2;PMS_P1;PMS_P2;Temp;Humidity;BMP_temperature;BMP_pressure;BME280_temperature;BME280_humidity;BME280_pressure;Samples;Min_cycle;Max_cycle;Signal;HPM_P1;HPM_P2
2021/09/18 00:01:37;;;;;;;14.20;8.55;;;;;;;17.84;100.00;97976.25;1657473;86;21070;-70
2021/09/18 00:04:13;;;;;;;14.60;8.63;;;;;;;17.82;100.00;97968.80;1653911;86;21426;-71
2021/09/18 00:06:44;;;;;;;17.73;8.60;;;;;;;17.80;100.00;97980.02;1657665;86;21427;-71
2021/09/18 00:09:15;;;;;;;14.68;8.03;;;;;;;17.82;100.00;97978.14;1657879;86;21371;-70
2021/09/18 00:11:45;;;;;;;17.33;8.57;;;;;;;17.86;100.00;97978.36;1657881;86;20916;-72
2021/09/18 00:14:22;;;;;;;14.83;9.25;;;;;;;17.91;100.00;97977.64;1657937;86;21499;-72
2021/09/18 00:16:52;;;;;;;11.25;7.92;;;;;;;17.90;100.00;97983.92;1656046;86;21066;-71
2021/09/18 00:19:24;;;;;;;18.90;8.20;;;;;;;17.90;100.00;97986.59;1658219;86;21008;-71
2021/09/18 00:21:55;;;;;;;16.32;8.38;;;;;;;17.92;100.00;97987.84;1658000;86;21519;-70
2021/09/18 00:24:30;;;;;;;16.70;8.95;;;;;;;17.96;100.00;97980.05;1657865;86;21541;-71
2021/09/18 00:27:01;;;;;;;13.40;9.33;;;;;;;17.97;100.00;97987.11;1657720;86;21404;-72
2021/09/18 00:29:33;;;;;;;25.90;9.85;;;;;;;17.96;100.00;97990.73;1653499;86;20964;-70
2021/09/18 00:32:03;;;;;;;;;;;;;;;18.01;100.00;97986.03;1660158;86;20947;-72
2021/09/18 00:34:33;;;;;;;21.85;8.80;;;;;;;18.06;100.00;97984.45;1625642;88;20418;-70
2021/09/18 00:37:02;;;;;;;20.62;9.58;;;;;;;18.08;100.00;97982.08;1657324;86;21407;-70
2021/09/18 00:39:31;;;;;;;13.05;8.83;;;;;;;18.11;100.00;97977.05;1657928;86;21434;-69
2021/09/18 00:42:01;;;;;;;15.72;8.95;;;;;;;18.14;100.00;97979.08;1654194;85;21448;-69
2021/09/18 00:44:30;;;;;;;17.55;8.93;;;;;;;18.18;100.00;97974.43;1657891;86;21008;-69
2021/09/18 00:46:59;;;;;;;16.20;9.20;;;;;;;18.21;100.00;97964.45;1657867;86;21023;-69
2021/09/18 00:49:28;;;;;;;19.55;9.05;;;;;;;18.20;100.00;97968.06;1657298;86;21530;-71
2021/09/18 00:52:02;;;;;;;16.05;9.48;;;;;;;18.18;100.00;97972.63;1643910;86;20936;-70
2021/09/18 00:54:33;;;;;;;20.00;9.20;;;;;;;18.19;100.00;97976.16;1643497;85;20947;-70
2021/09/18 00:57:06;;;;;;;14.58;9.15;;;;;;;18.19;100.00;97973.48;1644066;86;21475;-69
2021/09/18 00:59:34;;;;;;;19.80;10.20;;;;;;;18.19;100.00;97977.02;1644206;87;21440;-70
2021/09/18 01:02:02;;;;;;;17.37;9.50;;;;;;;18.20;100.00;97968.06;1644346;86;20928;-70
2021/09/18 01:04:31;;;;;;;19.92;10.82;;;;;;;18.19;100.00;97963.66;1644241;87;21116;-69
2021/09/18 01:07:00;;;;;;;15.55;9.88;;;;;;;18.19;100.00;97966.81;1644350;87;21542;-70
2021/09/18 01:09:29;;;;;;;19.92;10.50;;;;;;;18.17;100.00;97964.70;1644121;86;20932;-70
2021/09/18 01:11:59;;;;;;;17.52;9.63;;;;;;;18.17;100.00;97960.22;1644255;86;21444;-70
2021/09/18 01:14:27;;;;;;;16.77;9.43;;;;;;;18.21;100.00;97960.91;1644067;86;21034;-70
2021/09/18 01:16:56;;;;;;;17.90;10.18;;;;;;;18.23;100.00;97960.35;1644317;87;21473;-70
2021/09/18 01:19:24;;;;;;;16.42;10.20;;;;;;;18.23;100.00;97963.02;1644031;87;21452;-70
2021/09/18 01:21:54;;;;;;;14.80;9.60;;;;;;;18.22;100.00;97962.16;1644314;86;21488;-71
2021/09/18 01:24:26;;;;;;;20.50;11.08;;;;;;;18.21;100.00;97967.11;1644048;85;21447;-72
2021/09/18 01:26:55;;;;;;;25.77;11.05;;;;;;;18.22;100.00;97960.83;1643962;86;20977;-70
2021/09/18 01:29:27;;;;;;;20.80;11.03;;;;;;;18.22;100.00;97957.30;1643997;86;21938;-69
2021/09/18 01:31:57;;;;;;;20.57;10.88;;;;;;;18.18;100.00;97956.61;1639182;86;21384;-72
2021/09/18 01:34:27;;;;;;;21.15;10.38;;;;;;;18.14;100.00;97960.87;1644041;87;21456;-71
2021/09/18 01:36:57;;;;;;;25.57;10.78;;;;;;;18.11;100.00;97961.03;1644064;87;20999;-71
2021/09/18 01:39:27;;;;;;;18.95;10.78;;;;;;;18.10;100.00;97956.64;1644057;87;21463;-72
2021/09/18 01:41:56;;;;;;;21.68;10.88;;;;;;;18.05;100.00;97951.56;1644116;86;21074;-70
2021/09/18 01:44:27;;;;;;;21.73;11.40;;;;;;;18.04;100.00;97947.17;1644225;87;21582;-70
2021/09/18 01:46:55;;;;;;;20.30;10.72;;;;;;;18.02;100.00;97945.53;1644064;86;20957;-72
2021/09/18 01:49:27;;;;;;;20.77;10.90;;;;;;;18.02;100.00;97942.39;1644272;87;20965;-70
2021/09/18 01:51:59;;;;;;;19.30;10.85;;;;;;;18.02;100.00;97939.73;1637637;86;21463;-70
2021/09/18 01:54:28;;;;;;;21.30;11.30;;;;;;;18.05;100.00;97937.36;1669547;86;21498;-70
2021/09/18 01:57:00;;;;;;;21.23;11.78;;;;;;;18.05;100.00;97921.34;1655170;86;21475;-71
2021/09/18 01:59:32;;;;;;;23.55;10.60;;;;;;;18.05;100.00;97928.02;1667304;85;21398;-72
2021/09/18 02:02:01;;;;;;;21.60;10.48;;;;;;;18.04;100.00;97927.16;1654342;86;21726;-72
2021/09/18 02:04:29;;;;;;;22.55;11.50;;;;;;;18.04;100.00;97929.83;1651256;87;20952;-69
2021/09/18 02:06:59;;;;;;;21.33;11.85;;;;;;;18.04;100.00;97923.16;1650822;87;22028;-72
2021/09/18 02:09:28;;;;;;;20.23;11.68;;;;;;;18.03;100.00;97925.44;1651654;86;21475;-70
2021/09/18 02:12:00;;;;;;;23.45;10.30;;;;;;;17.99;100.00;97926.55;1668702;85;21471;-72
2021/09/18 02:14:29;;;;;;;20.43;10.95;;;;;;;17.95;100.00;97923.64;1669633;85;21043;-71
2021/09/18 02:16:59;;;;;;;19.75;10.60;;;;;;;17.92;100.00;97914.47;1669544;86;20943;-71
2021/09/18 02:19:29;;;;;;;22.45;11.12;;;;;;;17.88;100.00;97921.78;1669836;85;21386;-70
2021/09/18 02:21:58;;;;;;;20.15;12.00;;;;;;;17.85;100.00;97917.09;1669452;85;21483;-71
2021/09/18 02:24:27;;;;;;;17.98;10.85;;;;;;;17.84;100.00;97924.70;1670277;85;20927;-71
2021/09/18 02:27:01;;;;;;;21.40;10.95;;;;;;;17.79;100.00;97928.09;1669569;86;21495;-71
2021/09/18 02:29:32;;;;;;;18.65;11.00;;;;;;;17.78;100.00;97926.38;1669577;86;20963;-71
2021/09/18 02:32:02;;;;;;;22.48;11.20;;;;;;;17.78;100.00;97924.56;1669749;85;20911;-71
2021/09/18 02:34:34;;;;;;;17.75;11.22;;;;;;;17.76;100.00;97917.59;1665920;86;20947;-71
2021/09/18 02:37:05;;;;;;;24.07;10.58;;;;;;;17.75;100.00;97914.06;1655264;86;20924;-71
2021/09/18 02:39:35;;;;;;;18.20;10.30;;;;;;;17.74;100.00;97915.01;1669481;86;20915;-71
2021/09/18 02:42:04;;;;;;;21.60;9.68;;;;;;;17.76;100.00;97912.26;1669242;85;20888;-71
2021/09/18 02:44:35;;;;;;;21.90;10.55;;;;;;;17.77;100.00;97911.31;1655253;86;21431;-71
2021/09/18 02:47:05;;;;;;;18.85;9.73;;;;;;;17.77;100.00;97912.64;1669149;85;21470;-71
2021/09/18 02:49:33;;;;;;;16.05;8.70;;;;;;;17.75;100.00;97915.40;1669645;85;20951;-69
2021/09/18 02:52:04;;;;;;;18.15;8.23;;;;;;;17.73;100.00;97919.95;1655117;85;21415;-71
2021/09/18 02:54:38;;;;;;;15.78;7.85;;;;;;;17.72;100.00;97916.03;1669594;86;21483;-71
2021/09/18 02:57:08;;;;;;;13.15;7.53;;;;;;;17.73;100.00;97912.42;1654537;86;21638;-71
2021/09/18 02:59:41;;;;;;;14.73;8.03;;;;;;;17.71;100.00;97922.31;1669023;85;21477;-71
2021/09/18 03:02:10;;;;;;;11.28;6.50;;;;;;;17.66;100.00;97916.34;1669865;85;21545;-71
2021/09/18 03:04:42;;;;;;;9.68;4.40;;;;;;;17.63;100.00;97927.56;1669516;84;20990;-71
2021/09/18 03:07:11;;;;;;;5.70;2.60;;;;;;;17.62;100.00;97936.98;1669774;85;21553;-71
2021/09/18 03:09:43;;;;;;;2.02;1.62;;;;;;;17.55;100.00;97929.78;1655187;86;21554;-71
2021/09/18 03:12:15;;;;;;;3.22;1.40;;;;;;;17.50;100.00;97929.60;1669748;85;21478;-71
2021/09/18 03:14:44;;;;;;;1.65;1.20;;;;;;;17.42;100.00;97927.34;1669660;85;21390;-70
2021/09/18 03:17:18;;;;;;;1.50;1.00;;;;;;;17.38;100.00;97927.59;1669830;85;21494;-71
2021/09/18 03:19:47;;;;;;;2.85;1.10;;;;;;;17.36;100.00;97930.81;1669624;85;21478;-71
2021/09/18 03:22:18;;;;;;;0.80;0.80;;;;;;;17.32;100.00;97923.45;1669838;85;21429;-71
2021/09/18 03:24:50;;;;;;;1.45;1.00;;;;;;;17.26;100.00;97926.44;1669377;85;21418;-70
2021/09/18 03:27:19;;;;;;;1.55;1.10;;;;;;;17.20;100.00;97940.08;1669882;85;21012;-69
2021/09/18 03:29:49;;;;;;;0.88;0.80;;;;;;;17.13;100.00;97930.69;1629020;87;20933;-69
2021/09/18 03:32:18;;;;;;;2.35;0.80;;;;;;;17.08;100.00;97931.39;1667256;86;20967;-71
2021/09/18 03:34:48;;;;;;;2.05;0.90;;;;;;;17.02;100.00;97928.55;1655102;86;21605;-71
2021/09/18 03:37:21;;;;;;;2.75;1.10;;;;;;;17.02;100.00;97928.55;1665331;85;21466;-71
2021/09/18 03:39:52;;;;;;;1.22;1.02;;;;;;;17.00;100.00;97931.28;1669206;85;20879;-69
2021/09/18 03:42:22;;;;;;;2.77;1.00;;;;;;;16.97;100.00;97930.58;1655115;86;21466;-70
2021/09/18 03:44:50;;;;;;;0.80;0.80;;;;;;;16.95;100.00;97935.98;1636843;87;21691;-73
2021/09/18 03:47:21;;;;;;;1.87;0.90;;;;;;;17.00;100.00;97939.75;1669589;86;21131;-70
2021/09/18 03:49:56;;;;;;;1.55;1.00;;;;;;;16.98;100.00;97931.83;1663736;85;20955;-70
2021/09/18 03:52:28;;;;;;;1.00;0.90;;;;;;;17.02;100.00;97933.00;1663237;83;21506;-71
2021/09/18 03:54:56;;;;;;;2.90;0.90;;;;;;;17.02;100.00;97933.00;1662510;86;21443;-71
2021/09/18 03:57:25;;;;;;;3.80;0.60;;;;;;;17.02;100.00;97929.01;1650434;86;20975;-69
2021/09/18 03:59:55;;;;;;;1.32;0.90;;;;;;;17.03;100.00;97924.08;1662567;86;22028;-71
2021/09/18 04:02:25;;;;;;;5.75;1.00;;;;;;;17.05;100.00;97932.88;1662884;85;21448;-72
2021/09/18 04:04:54;;;;;;;2.47;0.80;;;;;;;17.05;100.00;97933.74;1662216;86;20955;-71
2021/09/18 04:07:23;;;;;;;1.07;0.90;;;;;;;17.08;100.00;97936.25;1663246;85;21535;-68
2021/09/18 04:09:50;;;;;;;4.28;0.90;;;;;;;17.07;100.00;97931.86;1662609;85;20987;-65
2021/09/18 04:12:20;;;;;;;0.70;0.70;;;;;;;17.10;100.00;97937.50;1650700;86;21793;-67
2021/09/18 04:14:47;;;;;;;2.40;0.80;;;;;;;17.11;100.00;97932.56;1662477;86;20962;-65
2021/09/18 04:17:16;;;;;;;3.30;0.90;;;;;;;17.11;100.00;97934.76;1662990;85;21538;-60
2021/09/18 04:19:44;;;;;;;3.37;0.90;;;;;;;17.12;100.00;97935.63;1661875;86;21001;-65
2021/09/18 04:22:13;;;;;;;4.50;0.88;;;;;;;17.17;100.00;97938.91;1641590;86;21423;-65
2021/09/18 04:24:43;;;;;;;1.25;0.60;;;;;;;17.21;100.00;97940.00;1666126;85;21423;-65
2021/09/18 04:27:14;;;;;;;2.67;0.85;;;;;;;17.25;100.00;97946.03;1662117;85;21372;-65
2021/09/18 04:29:42;;;;;;;2.35;0.80;;;;;;;17.28;100.00;97941.88;1632113;86;20966;-65
2021/09/18 04:32:12;;;;;;;1.22;0.95;;;;;;;17.31;100.00;97940.38;1681692;85;20932;-65
2021/09/18 04:34:40;;;;;;;2.58;0.93;;;;;;;17.34;100.00;97944.22;1670305;84;21427;-65
2021/09/18 04:37:09;;;;;;;1.85;0.90;;;;;;;17.36;100.00;97945.47;1666037;85;21490;-66
2021/09/18 04:39:38;;;;;;;4.37;0.90;;;;;;;17.42;100.00;97946.01;1665415;85;20871;-64
2021/09/18 04:42:05;;;;;;;1.37;0.80;;;;;;;17.42;100.00;97946.01;1666256;85;21522;-64
2021/09/18 04:44:33;;;;;;;4.90;1.00;;;;;;;17.45;100.00;97950.31;1666671;85;20895;-64
2021/09/18 04:47:02;;;;;;;1.77;0.80;;;;;;;17.44;100.00;97949.92;1666007;85;20938;-64
2021/09/18 04:49:32;;;;;;;1.17;0.80;;;;;;;17.41;100.00;97948.28;1665965;85;21454;-64
2021/09/18 04:52:01;;;;;;;4.45;0.93;;;;;;;17.39;100.00;97948.83;1664830;84;20967;-64
2021/09/18 04:54:30;;;;;;;0.90;0.82;;;;;;;17.35;100.00;97953.94;1665911;85;20939;-63
2021/09/18 04:56:59;;;;;;;1.07;0.80;;;;;;;17.35;100.00;97953.94;1666025;85;21490;-66
2021/09/18 04:59:26;;;;;;;0.80;0.80;;;;;;;17.37;100.00;97955.19;1666113;85;20880;-58
2021/09/18 05:01:54;;;;;;;0.85;0.80;;;;;;;17.35;100.00;97952.60;1666339;85;21434;-59
2021/09/18 05:04:22;;;;;;;1.62;0.82;;;;;;;17.33;100.00;97958.95;1665965;84;20958;-58
2021/09/18 05:06:50;;;;;;;2.27;1.20;;;;;;;17.31;100.00;97963.89;1666289;85;21807;-69
2021/09/18 05:09:18;;;;;;;2.17;0.98;;;;;;;17.32;100.00;97972.75;1666108;85;21423;-64
2021/09/18 05:11:48;;;;;;;4.00;1.30;;;;;;;17.31;100.00;97982.55;1666260;85;21465;-68
2021/09/18 05:14:17;;;;;;;4.20;1.45;;;;;;;17.27;100.00;97973.00;1666099;86;21160;-66
2021/09/18 05:16:45;;;;;;;2.27;1.02;;;;;;;17.26;100.00;97973.94;1666286;85;21449;-64
2021/09/18 05:19:13;;;;;;;5.83;1.77;;;;;;;17.29;100.00;97979.11;1665818;86;21489;-65
2021/09/18 05:21:41;;;;;;;2.40;1.42;;;;;;;17.33;100.00;97982.95;1665917;85;20938;-66
2021/09/18 05:24:10;;;;;;;2.65;1.10;;;;;;;17.35;100.00;97975.27;1665701;86;21461;-65
2021/09/18 05:26:39;;;;;;;2.75;1.10;;;;;;;17.38;100.00;97975.57;1666269;85;20919;-64
2021/09/18 05:29:09;;;;;;;3.30;1.20;;;;;;;17.40;100.00;97974.55;1665874;85;21486;-64
2021/09/18 05:31:39;;;;;;;1.95;1.00;;;;;;;17.46;100.00;97982.22;1666338;85;21375;-67
2021/09/18 05:34:09;;;;;;;1.77;1.10;;;;;;;17.51;100.00;97986.02;1666093;85;20923;-67
2021/09/18 05:36:37;;;;;;;2.40;1.10;;;;;;;17.52;100.00;97985.94;1666084;85;20979;-64
2021/09/18 05:39:05;;;;;;;1.40;0.90;;;;;;;17.54;100.00;97984.05;1666015;86;21125;-66
2021/09/18 05:41:34;;;;;;;1.00;0.82;;;;;;;17.52;100.00;97985.94;1665963;85;20919;-65
2021/09/18 05:44:02;;;;;;;2.05;1.02;;;;;;;17.54;100.00;97989.38;1666009;86;21482;-64
2021/09/18 05:46:29;;;;;;;1.65;0.93;;;;;;;17.54;100.00;97986.72;1666118;85;20884;-65
2021/09/18 05:48:57;;;;;;;2.17;1.15;;;;;;;17.54;100.00;97998.72;1666079;85;21010;-67
2021/09/18 05:51:26;;;;;;;3.20;0.90;;;;;;;17.56;100.00;98003.97;1666117;86;21486;-66
2021/09/18 05:53:55;;;;;;;3.10;1.00;;;;;;;17.57;100.00;97999.89;1666072;84;21069;-67
2021/09/18 05:56:24;;;;;;;1.82;1.27;;;;;;;17.61;100.00;97992.59;1666006;86;21450;-67
2021/09/18 05:58:52;;;;;;;1.85;1.00;;;;;;;17.62;100.00;97997.84;1666461;85;21454;-66
2021/09/18 06:01:21;;;;;;;3.15;1.20;;;;;;;17.62;100.00;97995.64;1666201;85;21445;-66
2021/09/18 06:03:50;;;;;;;1.00;0.90;;;;;;;17.60;100.00;97997.53;1666470;85;21093;-67
2021/09/18 06:06:20;;;;;;;1.05;1.00;;;;;;;17.58;100.00;97992.75;1666190;85;21479;-67
2021/09/18 06:08:48;;;;;;;1.30;1.20;;;;;;;17.58;100.00;98000.28;1666503;86;21490;-65
2021/09/18 06:11:17;;;;;;;8.18;4.58;;;;;;;17.60;100.00;97998.39;1666098;86;20927;-67
2021/09/18 06:13:46;;;;;;;6.67;2.90;;;;;;;17.62;100.00;98003.17;1666434;85;21484;-67
2021/09/18 06:16:16;;;;;;;3.00;1.90;;;;;;;17.59;100.00;97998.00;1666167;85;21415;-68
2021/09/18 06:18:44;;;;;;;3.77;2.10;;;;;;;17.57;100.00;98005.69;1666339;86;20967;-68
2021/09/18 06:21:12;;;;;;;3.95;2.60;;;;;;;17.57;100.00;98009.22;1666151;86;20931;-66
2021/09/18 06:23:41;;;;;;;8.20;3.27;;;;;;;17.58;100.00;98007.41;1666379;85;21474;-65
2021/09/18 06:26:09;;;;;;;7.55;5.00;;;;;;;17.57;100.00;98010.55;1666134;86;21481;-67
2021/09/18 06:28:38;;;;;;;8.45;3.33;;;;;;;17.59;100.00;98018.47;1666414;85;21795;-66
2021/09/18 06:31:07;;;;;;;2.45;1.80;;;;;;;17.57;100.00;98023.89;1666060;86;20922;-66
2021/09/18 06:33:36;;;;;;;4.08;1.80;;;;;;;17.59;100.00;98030.00;1666190;86;20926;-66
2021/09/18 06:36:04;;;;;;;3.92;2.37;;;;;;;17.58;100.00;98029.61;1666169;86;21458;-65
2021/09/18 06:38:32;;;;;;;4.15;2.17;;;;;;;17.59;100.00;98030.00;1666215;86;20919;-67
2021/09/18 06:40:59;;;;;;;4.33;2.40;;;;;;;17.60;100.00;98036.20;1666187;85;22527;-67
2021/09/18 06:43:32;;;;;;;5.85;2.80;;;;;;;17.59;100.00;98036.66;1666101;85;20917;-66
2021/09/18 06:46:00;;;;;;;5.15;2.62;;;;;;;17.65;100.00;98041.28;1666144;85;21121;-66
2021/09/18 06:48:29;;;;;;;3.30;1.77;;;;;;;17.69;100.00;98035.75;1666120;85;21439;-65
2021/09/18 06:50:58;;;;;;;1.90;1.65;;;;;;;17.72;100.00;98038.72;1666139;85;21616;-67
2021/09/18 06:53:27;;;;;;;3.92;1.50;;;;;;;17.72;100.00;98036.05;1665040;85;21375;-65
2021/09/18 06:55:55;;;;;;;3.83;2.20;;;;;;;17.74;100.00;98042.17;1666047;85;20963;-66
2021/09/18 06:58:24;;;;;;;3.27;2.08;;;;;;;17.74;100.00;98039.03;1666100;85;20867;-66
2021/09/18 07:00:52;;;;;;;3.58;2.00;;;;;;;17.75;100.00;98041.23;1666089;85;21485;-66
2021/09/18 07:03:20;;;;;;;5.85;2.40;;;;;;;17.74;100.00;98037.70;1666455;86;20975;-66
2021/09/18 07:05:49;;;;;;;6.62;2.40;;;;;;;17.73;100.00;98036.45;1666110;86;21896;-66
2021/09/18 07:08:17;;;;;;;2.60;1.67;;;;;;;17.72;100.00;98040.92;1666288;86;20902;-67
2021/09/18 07:10:45;;;;;;;3.00;1.47;;;;;;;17.73;100.00;98035.97;1666074;85;21010;-66
2021/09/18 07:13:14;;;;;;;2.33;1.40;;;;;;;17.81;100.00;98045.77;1666206;85;21462;-68
2021/09/18 07:15:42;;;;;;;2.15;1.37;;;;;;;17.86;100.00;98042.86;1666158;85;20927;-67
2021/09/18 07:18:10;;;;;;;2.30;1.20;;;;;;;17.90;100.00;98047.95;1666375;85;21080;-67
2021/09/18 07:20:37;;;;;;;1.90;1.00;;;;;;;17.96;100.00;98050.76;1666051;86;20958;-67
2021/09/18 07:23:06;;;;;;;1.15;1.05;;;;;;;18.01;100.00;98049.21;1666122;86;21486;-67
2021/09/18 07:25:34;;;;;;;1.22;0.90;;;;;;;18.06;100.00;98048.49;1666379;85;21535;-67
2021/09/18 07:28:01;;;;;;;1.62;0.80;;;;;;;18.12;100.00;98052.16;1665963;86;21031;-66
2021/09/18 07:30:30;;;;;;;1.60;0.95;;;;;;;18.17;100.00;98054.97;1666238;86;21075;-64
2021/09/18 07:32:58;;;;;;;1.55;0.90;;;;;;;18.20;100.00;98051.28;1665964;85;20915;-65
2021/09/18 07:35:25;;;;;;;1.80;1.05;;;;;;;18.23;100.00;98054.64;1666179;85;20919;-67
2021/09/18 07:37:53;;;;;;;2.35;1.10;;;;;;;18.21;100.00;98060.53;1665872;85;20977;-67
2021/09/18 07:40:21;;;;;;;0.95;0.80;;;;;;;18.24;100.00;98056.36;1678253;85;20953;-61
2021/09/18 07:42:49;;;;;;;0.93;0.90;;;;;;;18.30;100.00;98060.50;1673251;85;21059;-68
2021/09/18 07:45:18;;;;;;;3.05;1.00;;;;;;;18.30;100.00;98061.84;1635980;85;20935;-62
2021/09/18 07:47:46;;;;;;;0.70;0.70;;;;;;;18.29;100.00;98064.13;1653144;85;21356;-63
2021/09/18 07:50:13;;;;;;;2.15;0.70;;;;;;;18.30;100.00;98062.31;1645358;86;20915;-62
2021/09/18 07:52:44;;;;;;;1.32;0.68;;;;;;;18.33;100.00;98059.48;1637820;85;20951;-64
2021/09/18 07:55:14;;;;;;;;;;;;;;;18.36;100.00;98061.50;1632109;86;21106;-64
2021/09/18 07:57:44;;;;;;;1.47;0.93;;;;;;;18.39;100.00;98057.80;1643790;85;20150;-64
2021/09/18 08:00:20;;;;;;;3.52;1.00;;;;;;;18.42;100.00;98057.16;1644580;85;20962;-64
2021/09/18 08:03:23;;;;;;;3.08;1.27;;;;;;;18.46;100.00;98052.55;1635016;86;20928;-62
2021/09/18 08:05:51;;;;;;;2.58;0.80;;;;;;;18.51;100.00;98047.34;1664816;85;20967;-62
2021/09/18 08:08:19;;;;;;;3.05;0.90;;;;;;;18.56;100.00;98051.09;1635139;86;21089;-66
2021/09/18 08:10:48;;;;;;;2.35;0.93;;;;;;;18.63;100.00;98051.64;1670361;84;20880;-65
2021/09/18 08:13:16;;;;;;;1.47;0.78;;;;;;;18.69;100.00;98052.63;1663393;84;21471;-66
2021/09/18 08:15:44;;;;;;;2.75;0.90;;;;;;;18.70;100.00;98052.55;1667006;84;21367;-65
2021/09/18 08:18:12;;;;;;;1.05;0.80;;;;;;;18.75;100.00;98053.62;1635167;87;20987;-66
2021/09/18 08:20:42;;;;;;;1.45;0.72;;;;;;;18.79;100.00;98051.16;1658796;85;21502;-66
2021/09/18 08:23:09;;;;;;;3.22;0.80;;;;;;;18.86;100.00;98049.39;1667386;84;20904;-66
2021/09/18 08:25:37;;;;;;;2.17;1.22;;;;;;;18.96;100.00;98052.42;1666495;84;21425;-66
2021/09/18 08:28:08;;;;;;;1.40;0.93;;;;;;;19.07;100.00;98047.80;1665495;85;21509;-66
2021/09/18 08:30:35;;;;;;;0.80;0.80;;;;;;;19.19;100.00;98049.75;1665236;84;21035;-65
2021/09/18 08:33:05;;;;;;;0.98;0.88;;;;;;;19.30;100.00;98051.80;1636966;86;20938;-66
2021/09/18 08:35:33;;;;;;;1.00;0.85;;;;;;;19.37;100.00;98054.02;1606496;88;21506;-65
2021/09/18 08:38:01;;;;;;;0.90;0.82;;;;;;;19.45;100.00;98057.13;1647869;85;20967;-65
2021/09/18 08:40:36;;;;;;;0.90;0.70;;;;;;;19.53;100.00;98059.86;1658278;84;20881;-66
2021/09/18 08:43:05;;;;;;;2.85;0.90;;;;;;;19.60;100.00;98052.71;1665400;84;20883;-65
2021/09/18 08:45:32;;;;;;;2.58;0.80;;;;;;;19.70;100.00;98051.68;1638821;85;22299;-66
2021/09/18 08:48:05;;;;;;;3.50;1.25;;;;;;;19.79;100.00;98054.66;1645088;87;21530;-66
2021/09/18 08:50:34;;;;;;;1.60;0.90;;;;;;;19.92;100.00;98054.80;1648142;86;21606;-66
2021/09/18 08:53:02;;;;;;;3.00;1.00;;;;;;;20.11;100.00;98056.73;1642682;86;20939;-64
2021/09/18 08:55:30;;;;;;;0.95;0.90;;;;;;;20.27;100.00;98053.95;1616509;87;20953;-64
2021/09/18 08:57:58;;;;;;;0.95;0.90;;;;;;;20.43;100.00;98047.21;1623917;88;21167;-65
2021/09/18 09:00:37;;;;;;;1.47;0.93;;;;;;;20.53;100.00;98047.01;1633242;86;37500;-65
2021/09/18 09:03:07;;;;;;;1.90;1.35;;;;;;;20.60;100.00;98038.09;1612154;88;20968;-65
2021/09/18 09:05:41;;;;;;;3.30;1.20;;;;;;;20.65;100.00;98038.18;1635044;86;21468;-65
2021/09/18 09:08:18;;;;;;;1.00;0.90;;;;;;;20.70;100.00;98036.06;1633728;86;20984;-66
2021/09/18 09:10:46;;;;;;;3.15;1.15;;;;;;;20.78;100.00;98034.70;1629493;86;21104;-66
2021/09/18 09:13:20;;;;;;;2.37;1.17;;;;;;;20.86;100.00;98039.12;1634014;86;21660;-66
2021/09/18 09:15:52;;;;;;;1.45;1.05;;;;;;;20.90;100.00;98033.45;1644135;85;21030;-65
2021/09/18 09:18:27;;;;;;;2.90;1.70;;;;;;;20.93;100.00;98029.71;1606820;88;20947;-66
2021/09/18 09:21:20;;;;;;;2.08;1.75;;;;;;;20.91;100.00;98033.83;1677229;84;20988;-66
2021/09/18 09:24:10;;;;;;;1.37;1.27;;;;;;;20.83;100.00;98025.91;1676264;85;21109;-66
2021/09/18 09:26:42;;;;;;;1.10;1.00;;;;;;;20.70;100.00;98028.02;1670066;85;21033;-66
2021/09/18 09:29:09;;;;;;;2.53;1.03;;;;;;;20.62;100.00;98022.30;1638615;86;20908;-68
2021/09/18 09:31:39;;;;;;;1.25;0.95;;;;;;;20.60;100.00;98026.04;1638103;85;21448;-67
2021/09/18 09:34:14;;;;;;;1.10;0.93;;;;;;;20.61;100.00;98017.91;1635977;86;20938;-68
2021/09/18 09:36:48;;;;;;;3.25;1.10;;;;;;;20.66;100.00;98025.16;1639049;86;21854;-68
2021/09/18 09:39:19;;;;;;;0.90;0.85;;;;;;;20.74;100.00;98028.20;1655096;85;20948;-68
2021/09/18 09:41:48;;;;;;;1.62;0.82;;;;;;;20.84;100.00;98028.97;1656599;86;20992;-67
2021/09/18 09:44:24;;;;;;;1.10;0.95;;;;;;;20.93;100.00;98025.69;1657487;85;21419;-67
2021/09/18 09:47:12;;;;;;;2.50;1.10;;;;;;;21.03;100.00;98034.36;1662461;84;20994;-68
2021/09/18 09:49:44;;;;;;;1.87;0.98;;;;;;;21.17;100.00;98030.77;1668129;84;21303;-69
2021/09/18 09:52:31;;;;;;;1.32;1.05;;;;;;;21.34;100.00;98032.38;1667949;84;28117;-69
2021/09/18 09:55:10;;;;;;;2.42;1.00;;;;;;;21.45;100.00;98024.45;1667866;84;20990;-67
2021/09/18 09:57:41;;;;;;;1.45;0.90;;;;;;;21.55;100.00;98024.20;1640838;86;20975;-67
2021/09/18 10:00:19;;;;;;;2.05;0.70;;;;;;;21.59;100.00;98025.72;1632299;86;20964;-67
2021/09/18 10:02:46;;;;;;;1.17;1.07;;;;;;;21.61;100.00;98031.84;1674453;85;21083;-67
2021/09/18 10:05:15;;;;;;;1.15;0.80;;;;;;;21.63;100.00;98025.02;1676456;85;20924;-68
2021/09/18 10:07:44;;;;;;;1.00;0.90;;;;;;;21.66;100.00;98024.33;1675260;85;20878;-68
2021/09/18 10:10:14;;;;;;;1.35;1.10;;;;;;;21.69;100.00;98025.45;1673223;85;20939;-68
2021/09/18 10:12:43;;;;;;;1.77;0.90;;;;;;;21.73;100.00;98027.93;1644872;86;21474;-68
2021/09/18 10:15:11;;;;;;;4.25;1.02;;;;;;;21.74;100.00;98031.85;1641040;85;21069;-68
2021/09/18 10:17:42;;;;;;;1.12;1.00;;;;;;;21.74;100.00;98035.88;1666708;84;21427;-67
2021/09/18 10:20:13;;;;;;;0.70;0.70;;;;;;;21.74;100.00;98035.88;1666053;85;21489;-69
2021/09/18 10:25:33;;;;;;;0.95;0.80;;;;;;;21.69;100.00;98030.83;1634604;86;20979;-66
2021/09/18 10:28:14;;;;;;;4.47;0.80;;;;;;;21.69;100.00;98028.63;1631209;86;21130;-66
2021/09/18 10:30:57;;;;;;;12.07;1.87;;;;;;;21.67;100.00;98028.73;1666224;84;20915;-66
2021/09/18 10:33:35;;;;;;;5.62;1.12;;;;;;;21.67;100.00;98035.44;1655513;85;21011;-66
2021/09/18 10:36:19;;;;;;;1.07;0.72;;;;;;;21.66;100.00;98035.06;1640283;85;20951;-67
2021/09/18 10:38:52;;;;;;;1.27;0.82;;;;;;;21.65;100.00;98032.00;1641422;86;21429;-66
2021/09/18 10:41:24;;;;;;;0.70;0.70;;;;;;;21.63;100.00;98037.09;1639720;86;21197;-67
2021/09/18 10:43:56;;;;;;;1.62;0.75;;;;;;;21.60;100.00;98040.85;1660737;84;20982;-65
2021/09/18 10:46:47;;;;;;;0.90;0.80;;;;;;;21.53;100.00;98043.58;1658250;84;21031;-66
2021/09/18 10:49:39;;;;;;;4.60;1.00;;;;;;;21.48;100.00;98039.01;1640265;86;20967;-66
2021/09/18 10:52:30;;;;;;;4.80;1.00;;;;;;;21.45;100.00;98041.90;1654353;84;21508;-66
2021/09/18 10:55:06;;;;;;;0.93;0.70;;;;;;;21.45;100.00;98035.67;1641076;86;21949;-66
2021/09/18 10:57:42;;;;;;;4.20;2.20;;;;;;;21.45;100.00;98044.58;1625944;86;21483;-66
2021/09/18 11:00:24;;;;;;;2.92;2.10;;;;;;;21.45;100.00;98037.02;1675149;85;21436;-67
2021/09/18 11:02:58;;;;;;;3.40;1.72;;;;;;;21.45;100.00;98047.75;1675845;85;20961;-66
2021/09/18 11:05:44;;;;;;;3.45;1.95;;;;;;;21.43;100.00;98040.28;1679063;85;21504;-65
2021/09/18 11:08:20;;;;;;;5.10;2.02;;;;;;;21.35;100.00;98045.69;1678965;85;21113;-64
2021/09/18 11:11:01;;;;;;;6.85;4.15;;;;;;;21.29;100.00;98048.78;1678612;85;20953;-67
2021/09/18 11:13:39;;;;;;;2.75;1.67;;;;;;;21.25;100.00;98051.26;1673803;84;21514;-67
2021/09/18 11:16:25;;;;;;;1.60;1.10;;;;;;;21.22;100.00;98050.09;1668002;84;20954;-67
2021/09/18 11:19:03;;;;;;;20.40;8.18;;;;;;;21.14;100.00;98044.86;1650492;85;20955;-67
2021/09/18 11:21:35;;;;;;;4.90;1.90;;;;;;;21.15;100.00;98054.14;1647077;86;20940;-66
2021/09/18 11:24:19;;;;;;;4.22;1.27;;;;;;;21.15;100.00;98052.80;1662448;85;21442;-66
2021/09/18 11:26:58;;;;;;;5.95;3.37;;;;;;;21.19;100.00;98053.45;1661447;86;20971;-64
2021/09/18 11:29:33;;;;;;;18.37;11.20;;;;;;;21.23;100.00;98059.89;1650515;85;21440;-64
2021/09/18 11:32:12;;;;;;;31.80;18.57;;;;;;;21.28;100.00;98059.09;1662107;86;21565;-64
2021/09/18 11:34:52;;;;;;;25.12;11.50;;;;;;;21.35;100.00;98059.58;1650444;87;21917;-64
2021/09/18 11:37:27;;;;;;;23.07;10.43;;;;;;;21.42;100.00;98068.08;1662483;86;21398;-64
2021/09/18 11:40:01;;;;;;;30.23;11.85;;;;;;;21.42;100.00;98068.94;1650867;87;20919;-65
2021/09/18 11:42:33;;;;;;;28.65;14.23;;;;;;;21.44;100.00;98061.64;1662530;86;21515;-65